Time,TemperatureF,DewpointF,PressureIn,WindDirection,WindDirectionDegrees,WindSpeedMPH,WindSpeedGustMPH,Humidity,HourlyPrecipIn,Conditions,Clouds,dailyrainin,SoftwareType,DateUTC
2013-03-19 00:02:00,45.0,45.0,-100.00,ENE,60,1.0,2.0,100,-99.99,,,-99.99,,2013-03-19 07:02:00,
2013-03-19 00:12:00,45.0,45.0,-100.00,East,97,1.0,1.0,100,-99.99,,,-99.99,,2013-03-19 07:12:00,
2013-03-19 00:21:00,44.0,44.0,-100.00,East,91,1.0,3.0,100,-99.99,,,-99.99,,2013-03-19 07:21:00,
2013-03-19 00:32:00,44.0,44.0,-100.00,ESE,115,2.0,3.0,100,-99.99,,,-99.99,,2013-03-19 07:32:00,
2013-03-19 00:42:00,43.0,43.0,-100.00,SSE,148,2.0,3.0,100,-99.99,,,-99.99,,2013-03-19 07:42:00,
2013-03-19 00:52:00,43.0,43.0,-100.00,SSE,159,1.0,3.0,100,-99.99,,,-99.99,,2013-03-19 07:52:00,
2013-03-19 01:02:00,43.0,43.0,-100.00,ESE,107,3.0,3.0,100,-99.99,,,-99.99,,2013-03-19 08:02:00,
2013-03-19 01:12:00,44.0,44.0,-100.00,East,95,2.0,3.0,100,-99.99,,,-99.99,,2013-03-19 08:12:00,
2013-03-19 01:21:00,44.0,44.0,-100.00,ESE,113,2.0,3.0,100,-99.99,,,-99.99,,2013-03-19 08:21:00,
2013-03-19 01:32:00,44.0,44.0,-100.00,ESE,113,2.0,3.0,100,-99.99,,,-99.99,,2013-03-19 08:32:00,
2013-03-19 01:42:00,41.0,41.0,-100.00,East,98,3.0,3.0,100,-99.99,,,-99.99,,2013-03-19 08:42:00,
2013-03-19 01:52:00,41.0,41.0,-100.00,ENE,74,1.0,2.0,100,-99.99,,,-99.99,,2013-03-19 08:52:00,
2013-03-19 02:02:00,41.0,41.0,-100.00,South,172,1.0,1.0,100,-99.99,,,-99.99,,2013-03-19 09:02:00,
2013-03-19 02:12:00,40.0,40.0,-100.00,East,100,2.0,2.0,100,-99.99,,,-99.99,,2013-03-19 09:12:00,
2013-03-19 02:22:00,40.0,40.0,-100.00,ESE,102,2.0,3.0,100,-99.99,,,-99.99,,2013-03-19 09:22:00,
2013-03-19 02:32:00,39.0,39.0,-100.00,ESE,117,2.0,3.0,100,-99.99,,,-99.99,,2013-03-19 09:32:00,
2013-03-19 02:42:00,39.0,39.0,-100.00,SE,126,1.0,2.0,100,-99.99,,,-99.99,,2013-03-19 09:42:00,
2013-03-19 02:52:00,39.0,39.0,-100.00,SSE,167,0.0,1.0,100,-99.99,,,-99.99,,2013-03-19 09:52:00,
2013-03-19 03:03:00,38.0,38.0,-100.00,ESE,118,1.0,2.0,100,-99.99,,,-99.99,,2013-03-19 10:03:00,
2013-03-19 03:12:00,38.0,38.0,-100.00,ESE,122,2.0,3.0,100,-99.99,,,-99.99,,2013-03-19 10:12:00,
2013-03-19 03:22:00,38.0,38.0,-100.00,SE,125,1.0,2.0,100,-99.99,,,-99.99,,2013-03-19 10:22:00,
2013-03-19 03:32:00,38.0,38.0,-100.00,South,183,0.0,1.0,100,-99.99,,,-99.99,,2013-03-19 10:32:00,
2013-03-19 03:42:00,38.0,38.0,-100.00,SE,146,1.0,3.0,100,-99.99,,,-99.99,,2013-03-19 10:42:00,
2013-03-19 03:52:00,37.0,37.0,-100.00,ESE,118,2.0,4.0,100,-99.99,,,-99.99,,2013-03-19 10:52:00,
2013-03-19 04:02:00,37.0,37.0,-100.00,ENE,77,1.0,2.0,100,-99.99,,,-99.99,,2013-03-19 11:02:00,
2013-03-19 04:12:00,37.0,37.0,-100.00,ENE,71,1.0,2.0,100,-99.99,,,-99.99,,2013-03-19 11:12:00,
2013-03-19 04:22:00,37.0,37.0,-100.00,SE,131,0.0,2.0,100,-99.99,,,-99.99,,2013-03-19 11:22:00,
2013-03-19 04:32:00,36.0,36.0,-100.00,SE,130,1.0,2.0,100,-99.99,,,-99.99,,2013-03-19 11:32:00,
2013-03-19 04:42:00,36.0,36.0,-100.00,SE,131,1.0,2.0,100,-99.99,,,-99.99,,2013-03-19 11:42:00,
2013-03-19 04:52:00,35.0,35.0,-100.00,East,98,2.0,3.0,100,-99.99,,,-99.99,,2013-03-19 11:52:00,
2013-03-19 05:02:00,36.0,36.0,-100.00,ENE,69,1.0,2.0,100,-99.99,,,-99.99,,2013-03-19 12:02:00,
2013-03-19 05:12:00,35.0,35.0,-100.00,East,94,1.0,2.0,100,-99.99,,,-99.99,,2013-03-19 12:12:00,
2013-03-19 05:22:00,36.0,36.0,-100.00,East,82,1.0,2.0,100,-99.99,,,-99.99,,2013-03-19 12:22:00,
2013-03-19 05:32:00,36.0,36.0,-100.00,East,87,1.0,2.0,100,-99.99,,,-99.99,,2013-03-19 12:32:00,
2013-03-19 05:42:00,36.0,36.0,-100.00,East,87,1.0,2.0,100,-99.99,,,-99.99,,2013-03-19 12:42:00,
2013-03-19 05:51:00,36.0,36.0,-100.00,SSE,161,0.0,2.0,100,-99.99,,,-99.99,,2013-03-19 12:51:00,
2013-03-19 06:02:00,35.0,35.0,-100.00,East,93,2.0,4.0,100,-99.99,,,-99.99,,2013-03-19 13:02:00,
2013-03-19 06:12:00,35.0,35.0,-100.00,ESE,112,1.0,2.0,100,-99.99,,,-99.99,,2013-03-19 13:12:00,
2013-03-19 06:22:00,35.0,35.0,-100.00,ESE,121,2.0,3.0,100,-99.99,,,-99.99,,2013-03-19 13:22:00,
2013-03-19 06:32:00,36.0,36.0,-100.00,NW,322,1.0,2.0,100,-99.99,,,-99.99,,2013-03-19 13:32:00,
2013-03-19 06:42:00,35.0,35.0,-100.00,ESE,123,2.0,4.0,100,-99.99,,,-99.99,,2013-03-19 13:42:00,
2013-03-19 06:52:00,34.0,34.0,-100.00,ESE,112,2.0,5.0,100,-99.99,,,-99.99,,2013-03-19 13:52:00,
2013-03-19 07:01:00,34.0,34.0,-100.00,ESE,112,2.0,5.0,100,-99.99,,,-99.99,,2013-03-19 14:01:00,
2013-03-19 07:12:00,35.0,35.0,-100.00,WNW,295,0.0,2.0,100,-99.99,,,-99.99,,2013-03-19 14:12:00,
2013-03-19 07:22:00,34.0,34.0,-100.00,SE,146,1.0,3.0,100,-99.99,,,-99.99,,2013-03-19 14:22:00,
2013-03-19 07:32:00,34.0,34.0,-100.00,ESE,111,2.0,4.0,100,-99.99,,,-99.99,,2013-03-19 14:32:00,
2013-03-19 07:42:00,34.0,34.0,-100.00,ESE,117,2.0,3.0,100,-99.99,,,-99.99,,2013-03-19 14:42:00,
2013-03-19 07:52:00,35.0,35.0,-100.00,ENE,70,1.0,2.0,100,-99.99,,,-99.99,,2013-03-19 14:52:00,
2013-03-19 08:02:00,35.0,35.0,-100.00,East,85,1.0,2.0,99,-99.99,,,-99.99,,2013-03-19 15:02:00,
2013-03-19 08:12:00,35.0,34.0,-100.00,ESE,107,2.0,2.0,97,-99.99,,,-99.99,,2013-03-19 15:12:00,
2013-03-19 08:22:00,36.0,35.0,-100.00,ESE,106,2.0,3.0,97,-99.99,,,-99.99,,2013-03-19 15:22:00,
2013-03-19 08:33:00,38.0,37.0,-100.00,East,98,1.0,2.0,96,-99.99,,,-99.99,,2013-03-19 15:33:00,
2013-03-19 08:43:00,38.0,37.0,-100.00,East,98,1.0,2.0,96,-99.99,,,-99.99,,2013-03-19 15:43:00,
2013-03-19 08:53:00,40.0,38.0,-100.00,NE,53,0.0,3.0,91,-99.99,,,-99.99,,2013-03-19 15:53:00,
2013-03-19 09:03:00,42.0,37.0,-100.00,NE,40,1.0,4.0,83,-99.99,,,-99.99,,2013-03-19 16:03:00,
2013-03-19 09:13:00,44.0,37.0,-100.00,NE,38,1.0,3.0,76,-99.99,,,-99.99,,2013-03-19 16:13:00,
2013-03-19 09:23:00,47.0,36.0,-100.00,NNE,22,1.0,3.0,66,-99.99,,,-99.99,,2013-03-19 16:23:00,
2013-03-19 09:33:00,49.0,36.0,-100.00,WSW,258,1.0,3.0,61,-99.99,,,-99.99,,2013-03-19 16:33:00,
2013-03-19 09:43:00,50.0,36.0,-100.00,SW,220,1.0,2.0,58,-99.99,,,-99.99,,2013-03-19 16:43:00,
2013-03-19 09:53:00,52.0,37.0,-100.00,SW,218,1.0,3.0,57,-99.99,,,-99.99,,2013-03-19 16:53:00,
2013-03-19 10:02:00,54.0,38.0,-100.00,West,268,1.0,2.0,54,-99.99,,,-99.99,,2013-03-19 17:02:00,
2013-03-19 10:13:00,57.0,38.0,-100.00,West,268,1.0,2.0,49,-99.99,,,-99.99,,2013-03-19 17:13:00,
2013-03-19 10:23:00,58.0,37.0,-100.00,West,265,2.0,5.0,46,-99.99,,,-99.99,,2013-03-19 17:23:00,
2013-03-19 10:34:00,60.0,37.0,-100.00,WSW,251,1.0,4.0,43,-99.99,,,-99.99,,2013-03-19 17:34:00,
2013-03-19 10:43:00,62.0,37.0,-100.00,WNW,284,1.0,4.0,39,-99.99,,,-99.99,,2013-03-19 17:43:00,
2013-03-19 10:52:00,63.0,34.0,-100.00,WNW,285,1.0,4.0,34,-99.99,,,-99.99,,2013-03-19 17:52:00,
2013-03-19 11:02:00,64.0,32.0,-100.00,West,265,5.0,9.0,30,-99.99,,,-99.99,,2013-03-19 18:02:00,
2013-03-19 11:13:00,65.0,32.0,-100.00,West,259,6.0,12.0,29,-99.99,,,-99.99,,2013-03-19 18:13:00,
2013-03-19 11:23:00,65.0,32.0,-100.00,West,266,7.0,12.0,29,-99.99,,,-99.99,,2013-03-19 18:23:00,
2013-03-19 11:33:00,64.0,31.0,-100.00,WSW,257,7.0,13.0,29,-99.99,,,-99.99,,2013-03-19 18:33:00,
2013-03-19 11:42:00,65.0,32.0,-100.00,WSW,257,6.0,11.0,29,-99.99,,,-99.99,,2013-03-19 18:42:00,
2013-03-19 11:52:00,65.0,31.0,-100.00,West,261,6.0,11.0,28,-99.99,,,-99.99,,2013-03-19 18:52:00,
2013-03-19 12:02:00,66.0,32.0,-100.00,West,267,7.0,13.0,28,-99.99,,,-99.99,,2013-03-19 19:02:00,
2013-03-19 12:12:00,66.0,31.0,-100.00,West,260,7.0,14.0,27,-99.99,,,-99.99,,2013-03-19 19:12:00,
2013-03-19 12:22:00,67.0,32.0,-100.00,West,262,8.0,13.0,27,-99.99,,,-99.99,,2013-03-19 19:22:00,
2013-03-19 12:32:00,67.0,32.0,-100.00,WSW,256,9.0,14.0,27,-99.99,,,-99.99,,2013-03-19 19:32:00,
2013-03-19 12:42:00,68.0,32.0,-100.00,West,262,10.0,18.0,26,-99.99,,,-99.99,,2013-03-19 19:42:00,
2013-03-19 12:52:00,68.0,32.0,-100.00,WSW,256,9.0,16.0,26,-99.99,,,-99.99,,2013-03-19 19:52:00,
2013-03-19 13:02:00,68.0,32.0,-100.00,WSW,256,9.0,16.0,26,-99.99,,,-99.99,,2013-03-19 20:02:00,
2013-03-19 13:11:00,69.0,32.0,-100.00,West,265,11.0,18.0,25,-99.99,,,-99.99,,2013-03-19 20:11:00,
2013-03-19 13:22:00,69.0,32.0,-100.00,West,265,11.0,19.0,25,-99.99,,,-99.99,,2013-03-19 20:22:00,
2013-03-19 13:32:00,69.0,31.0,-100.00,West,267,12.0,20.0,24,-99.99,,,-99.99,,2013-03-19 20:32:00,
2013-03-19 13:42:00,69.0,30.0,-100.00,West,269,11.0,21.0,23,-99.99,,,-99.99,,2013-03-19 20:42:00,
2013-03-19 13:52:00,70.0,30.0,-100.00,West,273,12.0,19.0,23,-99.99,,,-99.99,,2013-03-19 20:52:00,
2013-03-19 14:01:00,70.0,30.0,-100.00,West,271,12.0,22.0,23,-99.99,,,-99.99,,2013-03-19 21:01:00,
2013-03-19 14:11:00,69.0,30.0,-100.00,West,277,11.0,23.0,23,-99.99,,,-99.99,,2013-03-19 21:11:00,
2013-03-19 14:22:00,70.0,30.0,-100.00,West,277,11.0,18.0,23,-99.99,,,-99.99,,2013-03-19 21:22:00,
2013-03-19 14:33:00,70.0,29.0,-100.00,West,274,12.0,23.0,22,-99.99,,,-99.99,,2013-03-19 21:33:00,
2013-03-19 14:42:00,70.0,29.0,-100.00,West,275,11.0,19.0,22,-99.99,,,-99.99,,2013-03-19 21:42:00,
2013-03-19 14:52:00,70.0,29.0,-100.00,West,281,7.0,18.0,22,-99.99,,,-99.99,,2013-03-19 21:52:00,
2013-03-19 15:02:00,70.0,30.0,-100.00,WNW,286,7.0,15.0,23,-99.99,,,-99.99,,2013-03-19 22:02:00,
2013-03-19 15:12:00,70.0,30.0,-100.00,WNW,286,7.0,14.0,23,-99.99,,,-99.99,,2013-03-19 22:12:00,
2013-03-19 15:22:00,70.0,32.0,-100.00,WNW,297,6.0,13.0,24,-99.99,,,-99.99,,2013-03-19 22:22:00,
2013-03-19 15:32:00,70.0,33.0,-100.00,WNW,293,7.0,14.0,25,-99.99,,,-99.99,,2013-03-19 22:32:00,
2013-03-19 15:43:00,69.0,33.0,-100.00,WNW,301,6.0,13.0,26,-99.99,,,-99.99,,2013-03-19 22:43:00,
2013-03-19 15:52:00,69.0,33.0,-100.00,WNW,302,5.0,13.0,26,-99.99,,,-99.99,,2013-03-19 22:52:00,
2013-03-19 16:02:00,69.0,33.0,-100.00,WNW,291,6.0,17.0,26,-99.99,,,-99.99,,2013-03-19 23:02:00,
2013-03-19 16:12:00,69.0,34.0,-100.00,WNW,300,6.0,12.0,27,-99.99,,,-99.99,,2013-03-19 23:12:00,
2013-03-19 16:22:00,69.0,34.0,-100.00,WNW,286,5.0,10.0,27,-99.99,,,-99.99,,2013-03-19 23:22:00,
2013-03-19 16:32:00,68.0,32.0,-100.00,WNW,283,8.0,15.0,26,-99.99,,,-99.99,,2013-03-19 23:32:00,
2013-03-19 16:42:00,68.0,31.0,-100.00,West,279,8.0,15.0,25,-99.99,,,-99.99,,2013-03-19 23:42:00,
2013-03-19 16:52:00,68.0,32.0,-100.00,West,272,10.0,17.0,26,-99.99,,,-99.99,,2013-03-19 23:52:00,
2013-03-19 17:02:00,67.0,32.0,-100.00,West,270,9.0,15.0,27,-99.99,,,-99.99,,2013-03-20 00:02:00,
2013-03-19 17:12:00,67.0,35.0,-100.00,West,274,8.0,14.0,30,-99.99,,,-99.99,,2013-03-20 00:12:00,
2013-03-19 17:22:00,67.0,34.0,-100.00,West,273,8.0,15.0,29,-99.99,,,-99.99,,2013-03-20 00:22:00,
2013-03-19 17:32:00,67.0,35.0,-100.00,West,278,7.0,14.0,30,-99.99,,,-99.99,,2013-03-20 00:32:00,
2013-03-19 17:42:00,66.0,35.0,-100.00,West,275,8.0,13.0,32,-99.99,,,-99.99,,2013-03-20 00:42:00,
2013-03-19 17:52:00,66.0,37.0,-100.00,West,273,7.0,13.0,34,-99.99,,,-99.99,,2013-03-20 00:52:00,
2013-03-19 18:02:00,65.0,38.0,-100.00,West,271,9.0,15.0,37,-99.99,,,-99.99,,2013-03-20 01:02:00,
2013-03-19 18:12:00,65.0,39.0,-100.00,West,274,7.0,14.0,39,-99.99,,,-99.99,,2013-03-20 01:12:00,
2013-03-19 18:22:00,64.0,40.0,-100.00,West,276,7.0,14.0,42,-99.99,,,-99.99,,2013-03-20 01:22:00,
2013-03-19 18:32:00,64.0,42.0,-100.00,WNW,284,5.0,9.0,44,-99.99,,,-99.99,,2013-03-20 01:32:00,
2013-03-19 18:42:00,63.0,41.0,-100.00,WNW,283,5.0,11.0,45,-99.99,,,-99.99,,2013-03-20 01:42:00,
2013-03-19 18:52:00,63.0,42.0,-100.00,West,270,7.0,12.0,47,-99.99,,,-99.99,,2013-03-20 01:52:00,
2013-03-19 19:02:00,62.0,42.0,-100.00,West,270,7.0,11.0,48,-99.99,,,-99.99,,2013-03-20 02:02:00,
2013-03-19 19:11:00,61.0,43.0,-100.00,West,276,7.0,12.0,51,-99.99,,,-99.99,,2013-03-20 02:11:00,
2013-03-19 19:21:00,60.0,44.0,-100.00,West,279,7.0,12.0,55,-99.99,,,-99.99,,2013-03-20 02:21:00,
2013-03-19 19:32:00,60.0,45.0,-100.00,WNW,287,5.0,12.0,57,-99.99,,,-99.99,,2013-03-20 02:32:00,
2013-03-19 19:42:00,59.0,46.0,-100.00,WNW,288,4.0,9.0,63,-99.99,,,-99.99,,2013-03-20 02:42:00,
2013-03-19 19:52:00,58.0,46.0,-100.00,WNW,289,3.0,7.0,65,-99.99,,,-99.99,,2013-03-20 02:52:00,
2013-03-19 20:01:00,57.0,46.0,-100.00,West,276,3.0,5.0,66,-99.99,,,-99.99,,2013-03-20 03:01:00,
2013-03-19 20:12:00,57.0,45.0,-100.00,West,267,2.0,5.0,65,-99.99,,,-99.99,,2013-03-20 03:12:00,
2013-03-19 20:22:00,56.0,44.0,-100.00,WSW,246,1.0,3.0,64,-99.99,,,-99.99,,2013-03-20 03:22:00,
2013-03-19 20:33:00,57.0,42.0,-100.00,WSW,248,2.0,5.0,58,-99.99,,,-99.99,,2013-03-20 03:33:00,
2013-03-19 20:42:00,57.0,40.0,-100.00,WSW,255,3.0,5.0,53,-99.99,,,-99.99,,2013-03-20 03:42:00,
2013-03-19 20:52:00,57.0,40.0,-100.00,SW,221,2.0,5.0,53,-99.99,,,-99.99,,2013-03-20 03:52:00,
2013-03-19 21:02:00,57.0,40.0,-100.00,WSW,239,2.0,4.0,53,-99.99,,,-99.99,,2013-03-20 04:02:00,
2013-03-19 21:12:00,57.0,40.0,-100.00,SSE,148,2.0,4.0,52,-99.99,,,-99.99,,2013-03-20 04:12:00,
2013-03-19 21:22:00,54.0,43.0,-100.00,East,101,3.0,5.0,65,-99.99,,,-99.99,,2013-03-20 04:22:00,
2013-03-19 21:32:00,53.0,44.0,-100.00,ENE,69,2.0,2.0,71,-99.99,,,-99.99,,2013-03-20 04:32:00,
2013-03-19 21:43:00,54.0,45.0,-100.00,ESE,112,3.0,4.0,71,-99.99,,,-99.99,,2013-03-20 04:43:00,
2013-03-19 21:52:00,52.0,45.0,-100.00,SSE,154,2.0,4.0,76,-99.99,,,-99.99,,2013-03-20 04:52:00,
2013-03-19 22:02:00,52.0,45.0,-100.00,ESE,122,3.0,4.0,78,-99.99,,,-99.99,,2013-03-20 05:02:00,
2013-03-19 22:12:00,51.0,44.0,-100.00,SE,127,3.0,4.0,78,-99.99,,,-99.99,,2013-03-20 05:12:00,
2013-03-19 22:22:00,50.0,43.0,-100.00,ESE,104,2.0,3.0,77,-99.99,,,-99.99,,2013-03-20 05:22:00,
2013-03-19 22:32:00,49.0,43.0,-100.00,ESE,106,2.0,2.0,79,-99.99,,,-99.99,,2013-03-20 05:32:00,
2013-03-19 22:42:00,48.0,42.0,-100.00,ESE,104,2.0,3.0,79,-99.99,,,-99.99,,2013-03-20 05:42:00,
2013-03-19 22:52:00,48.0,42.0,-100.00,ESE,121,2.0,3.0,80,-99.99,,,-99.99,,2013-03-20 05:52:00,
2013-03-19 23:02:00,48.0,42.0,-100.00,SE,131,3.0,4.0,80,-99.99,,,-99.99,,2013-03-20 06:02:00,
2013-03-19 23:12:00,47.0,42.0,-100.00,SE,133,3.0,4.0,82,-99.99,,,-99.99,,2013-03-20 06:12:00,
2013-03-19 23:22:00,46.0,41.0,-100.00,ENE,66,1.0,2.0,83,-99.99,,,-99.99,,2013-03-20 06:22:00,
2013-03-19 23:32:00,46.0,42.0,-100.00,East,98,1.0,2.0,85,-99.99,,,-99.99,,2013-03-20 06:32:00,
2013-03-19 23:42:00,46.0,41.0,-100.00,SE,132,0.0,2.0,84,-99.99,,,-99.99,,2013-03-20 06:42:00,
2013-03-19 23:52:00,46.0,41.0,-100.00,ESE,121,1.0,3.0,83,-99.99,,,-99.99,,2013-03-20 06:52:00,